フィレンツェ の空港の天気 - METARとTAF

フィレンツェ・ペレトラ空港 ( LIRQ / FLR ) - イタリア フィレンツェ
飛行場実況気象(Metar)
観測時間02/28 01:20 CET (02/28 00:20 UTC)
風向・風速東 2m/s
視程10km以上
天気現象
全天の4割程度の雲 雲底高度 910m
全天の8割程度の雲 雲底高度 1830m
気温9℃
湿度81%
気圧1014hPa
METARLIRQ 280020Z 09004KT 9999 SCT030 BKN060 09/06 Q1014
過去の天気等 Google飛行場航空写真 Wunderground天気予報

過去48時間のMETAR

飛行場予報(TAF)
発表時間: 2/28 00:00 CET (2/27 23:00 UTC)
予報対象時間: 28日1時 CET ~ 1日1時 CET
風向・風速不定 3m/s
視程10km以上
全天の4割程度の雲 雲底高度 610m
全天の8割程度の雲 雲底高度 1,520m
28日7時 CET ~ 28日10時 CET に徐々に
風向・風速西南西 8m/s 瞬間風速 13m/s
28日15時 CET ~ 28日17時 CET に徐々に
天気現象
28日21時 CET ~ 1日1時 CET に一時的に
視程4,000m
天気現象しゅう雨
TAF LIRQ 272300Z 2800/2824 VRB06KT 9999 SCT020 BKN050
BECMG 2806/2809 24015G25KT
BECMG 2814/2816 RA
TEMPO 2820/2824 4000 SHRA